createdAt,value
2019-05-17T00:00:12.990Z,99612.62
2019-05-17T00:02:39.727Z,99608.70
2019-05-17T00:05:06.895Z,99608.91
2019-05-17T00:07:33.178Z,99607.77
2019-05-17T00:09:59.894Z,99605.17
2019-05-17T00:12:27.094Z,99605.41
2019-05-17T00:14:53.365Z,99595.21
2019-05-17T00:17:20.100Z,99600.66
2019-05-17T00:19:46.850Z,99599.07
2019-05-17T00:22:13.589Z,99606.77
2019-05-17T00:24:40.313Z,99599.27
2019-05-17T00:27:07.042Z,99585.79
2019-05-17T00:29:34.170Z,99591.30
2019-05-17T00:32:00.895Z,99588.89
2019-05-17T00:34:27.633Z,99582.87
2019-05-17T00:36:54.355Z,99583.52
2019-05-17T00:39:21.090Z,99580.62
2019-05-17T00:41:47.827Z,99575.81
2019-05-17T00:44:16.595Z,99569.98
2019-05-17T00:46:41.318Z,99564.16
2019-05-17T00:49:08.062Z,99565.42
2019-05-17T00:51:36.887Z,99558.39
2019-05-17T00:54:01.652Z,99554.41
2019-05-17T00:56:28.377Z,99556.42
2019-05-17T00:58:56.828Z,99549.88
2019-05-17T01:01:21.869Z,99552.84
2019-05-17T01:03:48.630Z,99555.15
2019-05-17T01:06:16.971Z,99548.90
2019-05-17T01:08:42.122Z,99552.63
2019-05-17T01:11:08.911Z,99547.89
2019-05-17T01:13:37.497Z,99546.20
2019-05-17T01:16:02.386Z,99543.44
2019-05-17T01:18:29.122Z,99543.92
2019-05-17T01:20:56.760Z,99546.19
2019-05-17T01:23:22.587Z,99531.21
2019-05-17T01:25:49.326Z,99536.07
2019-05-17T01:28:16.443Z,99529.33
2019-05-17T01:30:42.898Z,99525.44
2019-05-17T01:33:09.626Z,99525.20
2019-05-17T01:35:37.387Z,99524.71
2019-05-17T01:38:03.250Z,99524.38
2019-05-17T01:40:29.990Z,99523.52
2019-05-17T01:42:58.137Z,99525.91
2019-05-17T01:45:23.446Z,99518.95
2019-05-17T01:47:50.166Z,99518.92
2019-05-17T01:50:17.468Z,99519.25
2019-05-17T01:52:45.865Z,99524.11
2019-05-17T01:55:10.498Z,99521.11
2019-05-17T01:57:37.343Z,99516.89
2019-05-17T02:00:06.370Z,99516.48
2019-05-17T02:02:36.459Z,99510.28
2019-05-17T02:05:00.762Z,99510.11
2019-05-17T02:07:27.526Z,99509.19
2019-05-17T02:09:56.700Z,99505.25
2019-05-17T02:12:20.982Z,99503.80
2019-05-17T02:14:47.734Z,99504.34
2019-05-17T02:17:14.460Z,99499.48
2019-05-17T02:19:41.187Z,99499.31
2019-05-17T02:22:08.034Z,99496.36
2019-05-17T02:24:36.894Z,99495.27
2019-05-17T02:27:01.505Z,99493.42
2019-05-17T02:29:28.244Z,99485.23
2019-05-17T02:31:55.019Z,99484.78
2019-05-17T02:34:23.242Z,99484.84
2019-05-17T02:36:48.494Z,99486.98
2019-05-17T02:39:15.221Z,99488.46
2019-05-17T02:41:42.971Z,99483.13
2019-05-17T02:44:08.697Z,99484.09
2019-05-17T02:46:35.481Z,99477.14
2019-05-17T02:49:02.988Z,99477.81
2019-05-17T02:51:28.931Z,99473.55
2019-05-17T02:53:55.668Z,99472.77
2019-05-17T02:56:23.219Z,99474.23
2019-05-17T02:58:49.160Z,99476.53
2019-05-17T03:01:15.931Z,99478.58
2019-05-17T03:03:43.625Z,99471.44
2019-05-17T03:06:09.395Z,99474.06
2019-05-17T03:08:36.123Z,99465.65
2019-05-17T03:11:03.562Z,99472.35
2019-05-17T03:13:32.794Z,99468.37
2019-05-17T03:15:56.652Z,99464.25
2019-05-17T03:18:23.373Z,99458.41
2019-05-17T03:20:52.526Z,99457.08
2019-05-17T03:23:16.949Z,99458.86
2019-05-17T03:25:44.100Z,99455.97
2019-05-17T03:28:13.202Z,99450.55
2019-05-17T03:30:38.142Z,99454.38
2019-05-17T03:33:07.654Z,99459.08
2019-05-17T03:35:37.755Z,99462.53
2019-05-17T03:37:58.419Z,99455.34
2019-05-17T03:40:56.520Z,99457.33
2019-05-17T03:42:53.870Z,99457.33
2019-05-17T03:45:18.730Z,99465.01
2019-05-17T03:47:45.665Z,99465.39
2019-05-17T03:50:13.456Z,99460.81
2019-05-17T03:52:39.195Z,99469.55
2019-05-17T03:55:05.913Z,99466.48
2019-05-17T03:57:32.653Z,99466.81
2019-05-17T04:00:03.498Z,99470.20
2019-05-17T04:02:26.318Z,99469.73
2019-05-17T04:04:53.294Z,99470.23
2019-05-17T04:07:23.366Z,99471.77
2019-05-17T04:09:46.589Z,99477.02
2019-05-17T04:12:13.736Z,99471.17
2019-05-17T04:14:42.827Z,99469.52
2019-05-17T04:17:06.865Z,99474.46
2019-05-17T04:19:33.848Z,99474.58
2019-05-17T04:22:03.487Z,99480.33
2019-05-17T04:24:27.036Z,99476.19
2019-05-17T04:26:53.767Z,99474.05
2019-05-17T04:29:22.673Z,99478.84
2019-05-17T04:31:47.491Z,99471.11
2019-05-17T04:34:14.765Z,99480.94
2019-05-17T04:36:43.155Z,99475.44
2019-05-17T04:39:08.251Z,99480.37
2019-05-17T04:41:45.145Z,99479.27
2019-05-17T04:44:02.709Z,99476.23
2019-05-17T04:46:28.766Z,99473.84
2019-05-17T04:48:55.501Z,99474.31
2019-05-17T04:51:23.250Z,99477.93
2019-05-17T04:53:52.725Z,99467.45
2019-05-17T04:56:15.922Z,99472.65
2019-05-17T04:58:43.060Z,99471.83
2019-05-17T05:01:12.907Z,99468.44
2019-05-17T05:03:36.139Z,99472.53
2019-05-17T05:06:03.420Z,99463.45
2019-05-17T05:08:32.771Z,99468.64
2019-05-17T05:10:56.387Z,99474.77
2019-05-17T05:13:23.132Z,99474.63
2019-05-17T05:15:52.035Z,99463.11
2019-05-17T05:18:16.592Z,99470.44
2019-05-17T05:20:43.912Z,99458.23
2019-05-17T05:23:12.130Z,99460.20
2019-05-17T05:25:36.800Z,99458.75
2019-05-17T05:28:03.522Z,99454.19
2019-05-17T05:30:32.042Z,99455.94
2019-05-17T05:32:57.027Z,99450.57
2019-05-17T05:35:23.758Z,99453.33
2019-05-17T05:37:52.489Z,99448.42
2019-05-17T05:40:17.258Z,99456.59
2019-05-17T05:42:43.990Z,99458.30
2019-05-17T05:45:12.119Z,99455.81
2019-05-17T05:47:37.462Z,99457.09
2019-05-17T05:50:04.414Z,99458.73
2019-05-17T05:52:32.440Z,99456.97
2019-05-17T05:54:58.084Z,99457.54
2019-05-17T05:57:24.818Z,99457.80
2019-05-17T05:59:51.897Z,99450.30
2019-05-17T06:02:18.267Z,99450.86
2019-05-17T06:04:44.998Z,99452.40
2019-05-17T06:07:12.865Z,99455.61
2019-05-17T06:09:38.550Z,99444.03
2019-05-17T06:12:05.342Z,99441.10
2019-05-17T06:14:32.450Z,99447.55
2019-05-17T06:16:58.913Z,99444.87
2019-05-17T06:19:25.639Z,99437.28
2019-05-17T06:21:52.381Z,99438.45
2019-05-17T06:24:19.103Z,99441.28
2019-05-17T06:26:45.837Z,99432.44
2019-05-17T06:29:12.577Z,99431.70
2019-05-17T06:31:39.409Z,99429.19
2019-05-17T06:34:06.135Z,99428.66
2019-05-17T06:36:33.028Z,99428.97
2019-05-17T06:39:02.101Z,99430.78
2019-05-17T06:41:26.337Z,99431.53
2019-05-17T06:43:53.058Z,99430.15
2019-05-17T06:46:21.972Z,99430.83
2019-05-17T06:48:46.643Z,99430.97
2019-05-17T06:51:13.369Z,99425.88
2019-05-17T06:53:40.117Z,99425.74
2019-05-17T06:56:06.846Z,99429.60
2019-05-17T06:58:33.569Z,99426.11
2019-05-17T07:01:00.333Z,99425.82
2019-05-17T07:03:29.345Z,99418.67
2019-05-17T07:05:54.258Z,99417.55
2019-05-17T07:08:20.982Z,99413.72
2019-05-17T07:10:50.110Z,99421.13
2019-05-17T07:13:14.458Z,99409.38
2019-05-17T07:15:47.298Z,99406.34
2019-05-17T07:18:10.156Z,99396.35
2019-05-17T07:20:34.643Z,99396.33
2019-05-17T07:23:01.423Z,99391.17
2019-05-17T07:25:30.221Z,99402.63
2019-05-17T07:27:54.891Z,99387.52
2019-05-17T07:30:21.615Z,99392.94
2019-05-17T07:32:49.799Z,99384.14
2019-05-17T07:35:15.074Z,99375.14
2019-05-17T07:37:41.915Z,99378.21
2019-05-17T07:40:10.876Z,99371.27
2019-05-17T07:42:35.370Z,99364.11
2019-05-17T07:45:02.286Z,99361.28
2019-05-17T07:47:29.441Z,99358.33
2019-05-17T07:49:55.796Z,99354.23
2019-05-17T07:52:22.538Z,99352.37
2019-05-17T07:54:50.831Z,99349.29
2019-05-17T07:57:16.010Z,99337.58
2019-05-17T07:59:42.746Z,99339.89
2019-05-17T08:02:10.645Z,99338.34
2019-05-17T08:04:36.214Z,99332.99
2019-05-17T08:07:02.933Z,99332.08
2019-05-17T08:09:30.167Z,99318.08
2019-05-17T08:11:56.395Z,99324.84
2019-05-17T08:14:29.958Z,99324.08
2019-05-17T08:16:50.229Z,99319.03
2019-05-17T08:19:16.599Z,99315.95
2019-05-17T08:21:43.318Z,99307.75
2019-05-17T08:24:10.398Z,99309.77
2019-05-17T08:26:36.778Z,99302.30
2019-05-17T08:29:03.526Z,99308.02
2019-05-17T08:31:30.231Z,99300.97
2019-05-17T08:33:56.982Z,99285.14
2019-05-17T08:36:23.700Z,99276.11
2019-05-17T08:38:50.442Z,99283.05
2019-05-17T08:41:17.165Z,99284.13
2019-05-17T08:43:47.010Z,99289.16
2019-05-17T08:46:10.724Z,99296.05
2019-05-17T08:48:37.390Z,99283.63
2019-05-17T08:51:04.110Z,99294.22
2019-05-17T08:53:30.857Z,99278.05
2019-05-17T08:55:57.592Z,99277.76
2019-05-17T08:58:24.294Z,99279.59
2019-05-17T09:00:51.041Z,99273.31
2019-05-17T09:03:19.589Z,99274.77
2019-05-17T09:05:44.531Z,99263.20
2019-05-17T09:08:11.247Z,99249.77
2019-05-17T09:10:40.473Z,99247.08
2019-05-17T09:13:04.734Z,99250.19
2019-05-17T09:15:31.473Z,99252.30
2019-05-17T09:18:00.183Z,99251.98
2019-05-17T09:20:24.946Z,99243.77
2019-05-17T09:22:51.679Z,99235.12
2019-05-17T09:25:21.444Z,99233.08
2019-05-17T09:27:45.338Z,99234.47
2019-05-17T09:30:12.066Z,99230.84
2019-05-17T09:32:40.528Z,99239.31
2019-05-17T09:35:05.555Z,99246.81
2019-05-17T09:37:32.283Z,99239.70
2019-05-17T09:39:59.858Z,99233.88
2019-05-17T09:42:25.754Z,99238.08
2019-05-17T09:44:52.503Z,99231.91
2019-05-17T09:47:20.606Z,99224.91
2019-05-17T09:49:45.997Z,99231.48
2019-05-17T09:52:12.722Z,99230.87
2019-05-17T09:54:44.975Z,99234.27
2019-05-17T09:57:06.193Z,99216.56
2019-05-17T09:59:32.925Z,99217.05
2019-05-17T10:02:00.111Z,99217.81
2019-05-17T10:04:26.383Z,99209.63
2019-05-17T10:06:53.134Z,99199.36
2019-05-17T10:09:19.866Z,99204.92
2019-05-17T10:11:46.633Z,99205.07
2019-05-17T10:14:24.588Z,99195.61
2019-05-17T10:16:40.199Z,99195.27
2019-05-17T10:19:09.445Z,99196.78
2019-05-17T10:21:33.683Z,99191.59
2019-05-17T10:24:00.463Z,99175.98
2019-05-17T10:26:30.193Z,99196.16
2019-05-17T10:28:53.967Z,99188.59
2019-05-17T10:31:20.729Z,99192.95
2019-05-17T10:33:49.364Z,99184.50
2019-05-17T10:36:14.222Z,99177.63
2019-05-17T10:38:40.953Z,99179.02
2019-05-17T10:41:09.965Z,99182.10
2019-05-17T10:43:34.446Z,99172.97
2019-05-17T10:46:01.191Z,99176.17
2019-05-17T10:48:29.996Z,99168.05
2019-05-17T10:50:54.677Z,99151.92
2019-05-17T10:53:21.403Z,99156.95
2019-05-17T10:55:49.812Z,99167.46
2019-05-17T10:58:14.890Z,99164.17
2019-05-17T11:00:41.734Z,99160.84
2019-05-17T11:03:09.803Z,99147.08
2019-05-17T11:05:35.097Z,99141.88
2019-05-17T11:08:01.838Z,99165.76
2019-05-17T11:10:28.606Z,99163.59
2019-05-17T11:12:55.343Z,99169.53
2019-05-17T11:15:22.086Z,99158.10
2019-05-17T11:17:48.797Z,99149.56
2019-05-17T11:20:15.572Z,99152.23
2019-05-17T11:22:42.293Z,99136.65
2019-05-17T11:25:09.036Z,99150.97
2019-05-17T11:27:35.788Z,99146.89
2019-05-17T11:30:02.538Z,99157.20
2019-05-17T11:32:29.312Z,99157.05
2019-05-17T11:34:56.030Z,99147.81
2019-05-17T11:37:22.835Z,99157.75
2019-05-17T11:39:49.602Z,99141.30
2019-05-17T11:42:17.299Z,99144.32
2019-05-17T11:44:44.034Z,99147.77
2019-05-17T11:47:10.867Z,99147.97
2019-05-17T11:49:37.604Z,99141.20
2019-05-17T11:52:04.349Z,99136.62
2019-05-17T11:54:32.270Z,99138.14
2019-05-17T11:56:59.044Z,99124.31
2019-05-17T11:59:25.745Z,99124.70
2019-05-17T12:01:52.614Z,99113.72
2019-05-17T12:04:19.346Z,99111.62
2019-05-17T12:06:46.086Z,99116.29
2019-05-17T12:09:12.831Z,99107.80
2019-05-17T12:11:39.658Z,99106.20
2019-05-17T12:14:06.407Z,99096.56
2019-05-17T12:16:33.134Z,99113.81
2019-05-17T12:18:59.954Z,99108.53
2019-05-17T12:21:26.704Z,99124.56
2019-05-17T12:23:53.450Z,99124.39
2019-05-17T12:26:20.191Z,99121.62
2019-05-17T12:28:47.059Z,99123.84
2019-05-17T12:31:13.814Z,99125.65
2019-05-17T12:33:40.595Z,99119.70
2019-05-17T12:36:07.589Z,99116.29
2019-05-17T12:38:34.310Z,99117.67
2019-05-17T12:41:01.055Z,99108.23
2019-05-17T12:43:27.875Z,99095.88
2019-05-17T12:46:00.799Z,99096.28
2019-05-17T12:48:21.400Z,99108.49
2019-05-17T12:50:48.207Z,99110.14
2019-05-17T12:53:14.975Z,99118.91
2019-05-17T12:55:41.798Z,99114.55
2019-05-17T12:58:08.581Z,99108.59
2019-05-17T13:00:35.386Z,99116.25
2019-05-17T13:03:02.255Z,99111.14
2019-05-17T13:05:28.982Z,99111.77
2019-05-17T13:07:55.797Z,99119.73
2019-05-17T13:10:22.636Z,99097.16
2019-05-17T13:12:49.394Z,99097.95
2019-05-17T13:15:16.135Z,99097.23
2019-05-17T13:17:42.979Z,99101.37
2019-05-17T13:20:09.713Z,99098.94
2019-05-17T13:22:36.486Z,99099.00
2019-05-17T13:25:04.376Z,99096.10
2019-05-17T13:27:31.126Z,99100.44
2019-05-17T13:29:57.882Z,99106.77
2019-05-17T13:32:24.642Z,99090.03
2019-05-17T13:34:51.474Z,99074.19
2019-05-17T13:37:18.214Z,99075.27
2019-05-17T13:39:44.958Z,99074.13
2019-05-17T13:42:11.802Z,99066.50
2019-05-17T13:44:38.527Z,99082.49
2019-05-17T13:47:05.275Z,99071.94
2019-05-17T13:49:32.019Z,99077.02
2019-05-17T13:51:58.876Z,99067.17
2019-05-17T13:54:25.607Z,99067.20
2019-05-17T13:56:52.348Z,99061.27
2019-05-17T13:59:19.082Z,99054.77
2019-05-17T14:01:45.959Z,99042.91
2019-05-17T14:04:12.771Z,99050.17
2019-05-17T14:06:39.539Z,99052.40
2019-05-17T14:09:06.296Z,99065.30
2019-05-17T14:11:33.050Z,99057.36
2019-05-17T14:13:59.854Z,99059.72
2019-05-17T14:16:26.575Z,99053.48
2019-05-17T14:18:53.313Z,99052.18
2019-05-17T14:21:20.185Z,99050.48
2019-05-17T14:23:47.083Z,99045.65
2019-05-17T14:26:13.833Z,99047.86
2019-05-17T14:28:40.579Z,99051.75
2019-05-17T14:31:07.431Z,99049.87
2019-05-17T14:33:34.153Z,99050.69
2019-05-17T14:36:00.928Z,99047.59
2019-05-17T14:38:27.743Z,99034.23
2019-05-17T14:41:09.901Z,99026.52
2019-05-17T14:43:21.334Z,99025.06
2019-05-17T14:45:48.076Z,99029.72
2019-05-17T14:48:14.818Z,99041.53
2019-05-17T14:50:41.564Z,99030.38
2019-05-17T14:53:08.409Z,99032.06
2019-05-17T14:55:35.139Z,99031.97
2019-05-17T14:58:02.006Z,99022.02
2019-05-17T15:00:28.748Z,99019.72
2019-05-17T15:02:55.482Z,99020.91
2019-05-17T15:05:22.200Z,99015.42
2019-05-17T15:07:48.938Z,99030.53
2019-05-17T15:10:15.769Z,99022.77
2019-05-17T15:12:42.627Z,99016.62
2019-05-17T15:15:09.364Z,99008.29
2019-05-17T15:17:36.896Z,99013.53
2019-05-17T15:20:03.667Z,99006.28
2019-05-17T15:22:30.510Z,99014.61
2019-05-17T15:24:57.386Z,99005.22
2019-05-17T15:27:24.196Z,99013.38
2019-05-17T15:29:51.031Z,99012.86
2019-05-17T15:32:17.758Z,99006.94
2019-05-17T15:34:44.514Z,99010.11
2019-05-17T15:37:11.307Z,99006.45
2019-05-17T15:39:38.022Z,99007.81
2019-05-17T15:42:04.734Z,99021.70
2019-05-17T15:44:31.477Z,99006.72
2019-05-17T15:46:58.225Z,99010.43
2019-05-17T15:49:24.968Z,98995.12
2019-05-17T15:51:51.690Z,98997.36
2019-05-17T15:54:18.430Z,99010.64
2019-05-17T15:56:45.165Z,99010.91
2019-05-17T15:59:11.908Z,98986.47
2019-05-17T16:01:38.852Z,98986.47
2019-05-17T16:04:05.361Z,98989.63
2019-05-17T16:06:32.083Z,98998.95
2019-05-17T16:08:58.871Z,99001.11
2019-05-17T16:11:25.590Z,98996.56
2019-05-17T16:13:52.318Z,98997.67
2019-05-17T16:16:19.053Z,98995.59
2019-05-17T16:18:45.782Z,98990.52
2019-05-17T16:21:12.519Z,98992.66
2019-05-17T16:23:39.358Z,98976.43
2019-05-17T16:26:06.088Z,98972.73
2019-05-17T16:28:32.840Z,98965.77
2019-05-17T16:30:59.609Z,98967.39
2019-05-17T16:33:26.339Z,98964.17
2019-05-17T16:35:53.066Z,98970.58
2019-05-17T16:38:19.807Z,98983.08
2019-05-17T16:40:46.528Z,98964.75
2019-05-17T16:43:18.100Z,98962.84
2019-05-17T16:45:40.077Z,98961.97
2019-05-17T16:48:06.830Z,98972.73
2019-05-17T16:50:33.574Z,98970.73
2019-05-17T16:53:05.913Z,98973.98
2019-05-17T16:55:27.139Z,98965.55
2019-05-17T16:57:53.858Z,98963.42
2019-05-17T17:00:24.401Z,98952.22
2019-05-17T17:02:51.123Z,98955.86
2019-05-17T17:05:17.906Z,98961.97
2019-05-17T17:07:44.623Z,98959.92
2019-05-17T17:10:11.364Z,98947.63
2019-05-17T17:12:38.111Z,98952.67
2019-05-17T17:15:04.875Z,98961.93
2019-05-17T17:17:31.593Z,98957.00
2019-05-17T17:19:58.355Z,98947.91
2019-05-17T17:22:25.084Z,98942.64
2019-05-17T17:24:51.814Z,98944.52
2019-05-17T17:27:18.532Z,98948.38
2019-05-17T17:29:45.269Z,98946.58
2019-05-17T17:32:21.253Z,98954.89
2019-05-17T17:34:38.731Z,98965.98
2019-05-17T17:37:05.471Z,98959.92
2019-05-17T17:39:32.190Z,98961.77
2019-05-17T17:41:58.933Z,98958.28
2019-05-17T17:44:25.825Z,98960.52
2019-05-17T17:46:52.550Z,98961.97
2019-05-17T17:49:19.290Z,98965.44
2019-05-17T17:51:46.007Z,98966.61
2019-05-17T17:54:12.742Z,98975.53
2019-05-17T17:56:39.454Z,98982.38
2019-05-17T17:59:06.231Z,98977.94
2019-05-17T18:01:32.930Z,98978.55
2019-05-17T18:03:59.659Z,98962.54
2019-05-17T18:06:26.418Z,98964.44
2019-05-17T18:08:53.154Z,98972.92
2019-05-17T18:11:19.889Z,98963.59
2019-05-17T18:13:46.605Z,98968.69
2019-05-17T18:16:13.361Z,98976.86
2019-05-17T18:18:40.102Z,98988.97
2019-05-17T18:21:06.829Z,98996.98
2019-05-17T18:23:33.575Z,99008.15
2019-05-17T18:26:00.298Z,99014.13
2019-05-17T18:28:27.051Z,99016.13
2019-05-17T18:30:53.781Z,99025.43
2019-05-17T18:33:20.522Z,99011.94
2019-05-17T18:35:47.254Z,99010.78
2019-05-17T18:38:14.010Z,99038.97
2019-05-17T18:40:40.762Z,99034.41
2019-05-17T18:43:07.477Z,99036.92
2019-05-17T18:45:34.218Z,99041.97
2019-05-17T18:48:00.958Z,99048.80
2019-05-17T18:50:27.982Z,99053.92
2019-05-17T18:52:55.001Z,99064.39
2019-05-17T18:55:21.487Z,99060.95
2019-05-17T18:57:48.233Z,99071.56
2019-05-17T19:00:14.987Z,99072.38
2019-05-17T19:02:41.721Z,99070.12
2019-05-17T19:05:08.488Z,99081.08
2019-05-17T19:07:35.207Z,99073.72
2019-05-17T19:10:02.005Z,99077.50
2019-05-17T19:12:28.726Z,99079.38
2019-05-17T19:14:55.478Z,99077.55
2019-05-17T19:17:22.187Z,99082.46
2019-05-17T19:19:48.948Z,99085.55
2019-05-17T19:22:15.666Z,99082.38
2019-05-17T19:24:42.431Z,99083.69
2019-05-17T19:27:09.166Z,99094.00
2019-05-17T19:29:35.910Z,99102.66
2019-05-17T19:32:02.640Z,99097.18
2019-05-17T19:34:29.370Z,99100.86
2019-05-17T19:36:56.090Z,99111.44
2019-05-17T19:39:22.826Z,99112.34
2019-05-17T19:41:49.586Z,99113.84
2019-05-17T19:44:16.481Z,99113.47
2019-05-17T19:46:43.222Z,99117.00
2019-05-17T19:49:09.968Z,99122.38
2019-05-17T19:51:36.708Z,99128.23
2019-05-17T19:54:03.436Z,99123.77
2019-05-17T19:56:30.182Z,99126.14
2019-05-17T19:58:56.921Z,99126.88
2019-05-17T20:01:23.686Z,99129.78
2019-05-17T20:03:50.422Z,99130.53
2019-05-17T20:06:17.187Z,99126.48
2019-05-17T20:08:43.906Z,99135.27
2019-05-17T20:11:10.684Z,99138.85
2019-05-17T20:13:37.402Z,99143.16
2019-05-17T20:16:04.166Z,99140.08
2019-05-17T20:18:30.927Z,99139.95
2019-05-17T20:20:57.694Z,99143.23
2019-05-17T20:23:24.418Z,99135.54
2019-05-17T20:25:51.168Z,99145.33
2019-05-17T20:28:17.887Z,99145.18
2019-05-17T20:30:44.666Z,99150.33
2019-05-17T20:33:11.390Z,99155.87
2019-05-17T20:35:38.130Z,99151.92
2019-05-17T20:38:04.854Z,99153.05
2019-05-17T20:40:31.602Z,99157.78
2019-05-17T20:42:58.330Z,99157.59
2019-05-17T20:45:33.318Z,99160.02
2019-05-17T20:47:51.806Z,99165.88
2019-05-17T20:50:18.538Z,99165.30
2019-05-17T20:52:45.267Z,99162.93
2019-05-17T20:55:12.018Z,99154.86
2019-05-17T20:57:38.742Z,99168.31
2019-05-17T21:00:05.620Z,99171.39
2019-05-17T21:02:32.346Z,99162.27
2019-05-17T21:04:59.086Z,99168.16
2019-05-17T21:07:25.815Z,99167.20
2019-05-17T21:09:52.542Z,99173.64
2019-05-17T21:12:19.282Z,99160.27
2019-05-17T21:14:46.001Z,99166.15
2019-05-17T21:17:12.721Z,99160.42
2019-05-17T21:19:39.445Z,99170.41
2019-05-17T21:22:06.191Z,99177.75
2019-05-17T21:24:32.939Z,99180.73
2019-05-17T21:26:59.734Z,99177.19
2019-05-17T21:29:26.433Z,99170.36
2019-05-17T21:31:53.179Z,99179.13
2019-05-17T21:34:19.910Z,99177.02
2019-05-17T21:36:46.658Z,99172.72
2019-05-17T21:39:13.397Z,99178.64
2019-05-17T21:41:40.150Z,99175.72
2019-05-17T21:44:06.878Z,99183.63
2019-05-17T21:46:33.625Z,99179.33
2019-05-17T21:49:00.350Z,99181.37
2019-05-17T21:51:27.222Z,99185.94
2019-05-17T21:53:53.975Z,99179.89
2019-05-17T21:56:20.730Z,99181.53
2019-05-17T21:58:47.448Z,99184.95
2019-05-17T22:01:15.822Z,99192.97
2019-05-17T22:03:42.538Z,99194.52
2019-05-17T22:06:09.295Z,99194.53
2019-05-17T22:08:36.044Z,99190.76
2019-05-17T22:11:02.766Z,99194.32
2019-05-17T22:13:29.599Z,99194.44
2019-05-17T22:15:56.334Z,99199.45
2019-05-17T22:18:23.078Z,99202.16
2019-05-17T22:20:49.817Z,99200.64
2019-05-17T22:23:16.562Z,99208.80
2019-05-17T22:25:43.295Z,99207.14
2019-05-17T22:28:10.031Z,99205.91
2019-05-17T22:30:36.766Z,99205.47
2019-05-17T22:33:03.522Z,99207.39
2019-05-17T22:35:30.246Z,99208.58
2019-05-17T22:37:57.010Z,99212.08
2019-05-17T22:40:23.740Z,99212.77
2019-05-17T22:42:50.487Z,99217.70
2019-05-17T22:45:17.211Z,99215.18
2019-05-17T22:47:44.012Z,99218.34
2019-05-17T22:50:10.699Z,99220.47
2019-05-17T22:52:37.442Z,99219.60
2019-05-17T22:55:04.218Z,99225.04
2019-05-17T22:57:30.954Z,99224.42
2019-05-17T22:59:57.753Z,99223.66
2019-05-17T23:02:24.503Z,99228.61
2019-05-17T23:04:51.226Z,99237.48
2019-05-17T23:07:17.981Z,99243.37
2019-05-17T23:09:44.698Z,99240.92
2019-05-17T23:12:11.442Z,99237.75
2019-05-17T23:14:38.182Z,99234.83
2019-05-17T23:17:04.925Z,99233.48
2019-05-17T23:19:31.650Z,99230.11
2019-05-17T23:21:58.386Z,99232.84
2019-05-17T23:24:25.174Z,99239.55
2019-05-17T23:26:51.921Z,99235.17
2019-05-17T23:29:18.645Z,99226.86
2019-05-17T23:31:45.421Z,99228.46
2019-05-17T23:34:12.149Z,99225.39
2019-05-17T23:36:38.874Z,99231.20
2019-05-17T23:39:05.994Z,99235.41
2019-05-17T23:41:32.715Z,99243.09
2019-05-17T23:43:59.457Z,99239.77
2019-05-17T23:46:26.185Z,99242.97
2019-05-17T23:48:52.926Z,99242.22
2019-05-17T23:51:19.645Z,99237.25
2019-05-17T23:53:46.403Z,99241.97
2019-05-17T23:56:13.173Z,99241.63
2019-05-17T23:58:39.927Z,99240.45
